LGZA

Details ICAO LGZA (ZTH)
Name Zakynthos Dionysios Solomos
Region Greece
Timezone Europe/Athens (UTC+2.0)
Plans Departing 419
Arriving 753
Stats Elevation 14 ft / 4 m (AMSL)
Location 37.751100° 20.884200°
Runways 1
Magnetic Variation 4.383° E
Sunrise 2021-02-24 05:16:24 UTC / 2021-02-24 07:16:24 Local
Sunset 2021-02-24 16:25:55 UTC / 2021-02-24 18:25:55 Local
Advertisement - Login to hide

Runways

ID Width Length Bearing (true/mag) Surface Threshold Overrun Markings Lighting
16 148 ft / 45 m 7,338 ft / 2,237 m 163.54° / 159.16° ASPHALT 650 ft / 198 m 207 ft / 63 m PREC-APP EDGE THRESHOLD REIL-OMNI
34 148 ft / 45 m 7,338 ft / 2,237 m 343.55° / 339.16° ASPHALT 676 ft / 206 m 318 ft / 97 m PREC-APP EDGE THRESHOLD

Map

Weather


0- 5 10 15 20 25 30 35+ Temperature / °C

Clouds and Precipitation
Forecast for 2021-02-24 18:00 UTC. Updated an hour ago

Ground ~20,000 ft ~40,000 ft Winds

METAR

LGZA 241550Z VRB03KT CAVOK 17/12 Q1028

TAF

Not found

Frequencies

Ground 122.10 MHz Zakinthos Ground
Recorded 127.05 MHz Zakinthos Dionisios Solomos Airport
Approach 121.13 MHz Andravida Approach
Approach 120.65 MHz Andravida Approach
Tower 125.42 MHz Zakinthos Tower
Warning: Do not use this data for real-world aviation or navigation. No guarantee of current accuracy is given.